sensor_id;sensor_type;location;lat;lon;timestamp;P1;durP1;ratioP1;P2;durP2;ratioP2
8060;SDS011;4073;42.626;25.386;2024-03-02T00:00:36;69.73;;;36.47;;
8060;SDS011;4073;42.626;25.386;2024-03-02T00:03:03;81.83;;;38.23;;
8060;SDS011;4073;42.626;25.386;2024-03-02T00:05:29;61.87;;;33.93;;
8060;SDS011;4073;42.626;25.386;2024-03-02T00:07:55;70.63;;;36.53;;
8060;SDS011;4073;42.626;25.386;2024-03-02T00:10:23;73.83;;;36.73;;
8060;SDS011;4073;42.626;25.386;2024-03-02T00:12:54;75.03;;;34.40;;
8060;SDS011;4073;42.626;25.386;2024-03-02T00:18:09;91.07;;;47.60;;
8060;SDS011;4073;42.626;25.386;2024-03-02T00:20:36;87.47;;;35.70;;
8060;SDS011;4073;42.626;25.386;2024-03-02T00:23:03;78.90;;;36.30;;
8060;SDS011;4073;42.626;25.386;2024-03-02T00:25:43;75.40;;;36.20;;
8060;SDS011;4073;42.626;25.386;2024-03-02T00:28:20;78.10;;;35.43;;
8060;SDS011;4073;42.626;25.386;2024-03-02T00:31:05;75.73;;;36.33;;
8060;SDS011;4073;42.626;25.386;2024-03-02T00:36:09;105.20;;;47.30;;
8060;SDS011;4073;42.626;25.386;2024-03-02T00:38:40;73.23;;;35.17;;
8060;SDS011;4073;42.626;25.386;2024-03-02T00:41:15;83.57;;;35.80;;
8060;SDS011;4073;42.626;25.386;2024-03-02T00:43:47;73.30;;;34.90;;
8060;SDS011;4073;42.626;25.386;2024-03-02T00:46:18;75.70;;;34.20;;
8060;SDS011;4073;42.626;25.386;2024-03-02T00:48:48;74.63;;;36.03;;
8060;SDS011;4073;42.626;25.386;2024-03-02T00:51:19;97.90;;;47.97;;
8060;SDS011;4073;42.626;25.386;2024-03-02T00:53:45;85.20;;;43.67;;
8060;SDS011;4073;42.626;25.386;2024-03-02T00:56:11;147.67;;;65.43;;
8060;SDS011;4073;42.626;25.386;2024-03-02T00:58:40;89.83;;;42.70;;
8060;SDS011;4073;42.626;25.386;2024-03-02T01:01:05;80.93;;;39.10;;
8060;SDS011;4073;42.626;25.386;2024-03-02T01:03:32;71.73;;;34.27;;
8060;SDS011;4073;42.626;25.386;2024-03-02T01:05:58;60.20;;;32.20;;
8060;SDS011;4073;42.626;25.386;2024-03-02T01:08:24;70.53;;;32.43;;
8060;SDS011;4073;42.626;25.386;2024-03-02T01:10:49;82.07;;;33.17;;
8060;SDS011;4073;42.626;25.386;2024-03-02T01:13:15;68.40;;;32.30;;
8060;SDS011;4073;42.626;25.386;2024-03-02T01:15:40;71.60;;;33.07;;
8060;SDS011;4073;42.626;25.386;2024-03-02T01:18:06;63.97;;;31.73;;
8060;SDS011;4073;42.626;25.386;2024-03-02T01:20:31;81.57;;;32.50;;
8060;SDS011;4073;42.626;25.386;2024-03-02T01:22:57;67.33;;;31.23;;
8060;SDS011;4073;42.626;25.386;2024-03-02T01:25:23;83.80;;;35.93;;
8060;SDS011;4073;42.626;25.386;2024-03-02T01:27:48;66.07;;;34.83;;
8060;SDS011;4073;42.626;25.386;2024-03-02T01:30:14;61.57;;;30.83;;
8060;SDS011;4073;42.626;25.386;2024-03-02T01:32:39;64.80;;;32.57;;
8060;SDS011;4073;42.626;25.386;2024-03-02T01:35:05;62.87;;;33.00;;
8060;SDS011;4073;42.626;25.386;2024-03-02T01:37:32;86.47;;;36.90;;
8060;SDS011;4073;42.626;25.386;2024-03-02T01:39:57;71.87;;;35.57;;
8060;SDS011;4073;42.626;25.386;2024-03-02T01:42:23;73.13;;;35.30;;
8060;SDS011;4073;42.626;25.386;2024-03-02T01:44:49;72.90;;;35.77;;
8060;SDS011;4073;42.626;25.386;2024-03-02T01:47:14;71.30;;;36.30;;
8060;SDS011;4073;42.626;25.386;2024-03-02T01:49:40;75.23;;;36.63;;
8060;SDS011;4073;42.626;25.386;2024-03-02T01:52:06;74.13;;;34.40;;
8060;SDS011;4073;42.626;25.386;2024-03-02T01:54:32;66.53;;;33.60;;
8060;SDS011;4073;42.626;25.386;2024-03-02T01:56:58;83.57;;;37.37;;
8060;SDS011;4073;42.626;25.386;2024-03-02T01:59:24;67.20;;;33.60;;
8060;SDS011;4073;42.626;25.386;2024-03-02T02:01:50;71.03;;;34.47;;
8060;SDS011;4073;42.626;25.386;2024-03-02T02:04:15;71.90;;;32.20;;
8060;SDS011;4073;42.626;25.386;2024-03-02T02:06:41;70.50;;;35.13;;
8060;SDS011;4073;42.626;25.386;2024-03-02T02:09:09;91.10;;;38.27;;
8060;SDS011;4073;42.626;25.386;2024-03-02T02:11:34;85.50;;;39.23;;
8060;SDS011;4073;42.626;25.386;2024-03-02T02:14:00;111.70;;;39.00;;
8060;SDS011;4073;42.626;25.386;2024-03-02T02:16:26;121.37;;;38.77;;
8060;SDS011;4073;42.626;25.386;2024-03-02T02:18:51;111.50;;;38.13;;
8060;SDS011;4073;42.626;25.386;2024-03-02T02:21:17;75.77;;;32.90;;
8060;SDS011;4073;42.626;25.386;2024-03-02T02:23:42;77.50;;;36.77;;
8060;SDS011;4073;42.626;25.386;2024-03-02T02:26:11;96.93;;;37.13;;
8060;SDS011;4073;42.626;25.386;2024-03-02T02:28:37;72.37;;;34.20;;
8060;SDS011;4073;42.626;25.386;2024-03-02T02:31:03;78.83;;;36.23;;
8060;SDS011;4073;42.626;25.386;2024-03-02T02:33:28;69.07;;;34.50;;
8060;SDS011;4073;42.626;25.386;2024-03-02T02:35:54;75.23;;;35.00;;
8060;SDS011;4073;42.626;25.386;2024-03-02T02:38:19;62.77;;;29.70;;
8060;SDS011;4073;42.626;25.386;2024-03-02T02:40:45;64.07;;;30.50;;
8060;SDS011;4073;42.626;25.386;2024-03-02T02:43:11;74.77;;;32.07;;
8060;SDS011;4073;42.626;25.386;2024-03-02T02:45:36;63.40;;;31.60;;
8060;SDS011;4073;42.626;25.386;2024-03-02T02:48:02;53.17;;;26.93;;
8060;SDS011;4073;42.626;25.386;2024-03-02T02:50:28;47.27;;;26.67;;
8060;SDS011;4073;42.626;25.386;2024-03-02T02:52:53;43.50;;;24.63;;
8060;SDS011;4073;42.626;25.386;2024-03-02T02:55:19;51.57;;;26.23;;
8060;SDS011;4073;42.626;25.386;2024-03-02T02:57:45;42.27;;;23.70;;
8060;SDS011;4073;42.626;25.386;2024-03-02T03:00:14;43.67;;;23.87;;
8060;SDS011;4073;42.626;25.386;2024-03-02T03:02:41;46.60;;;26.37;;
8060;SDS011;4073;42.626;25.386;2024-03-02T03:05:11;58.80;;;26.73;;
8060;SDS011;4073;42.626;25.386;2024-03-02T03:07:39;54.30;;;28.47;;
8060;SDS011;4073;42.626;25.386;2024-03-02T03:10:05;55.10;;;26.73;;
8060;SDS011;4073;42.626;25.386;2024-03-02T03:12:31;49.37;;;27.20;;
8060;SDS011;4073;42.626;25.386;2024-03-02T03:14:57;56.80;;;28.70;;
8060;SDS011;4073;42.626;25.386;2024-03-02T03:17:23;64.80;;;30.27;;
8060;SDS011;4073;42.626;25.386;2024-03-02T03:19:49;61.20;;;30.63;;
8060;SDS011;4073;42.626;25.386;2024-03-02T03:22:15;68.07;;;31.50;;
8060;SDS011;4073;42.626;25.386;2024-03-02T03:24:41;59.93;;;29.87;;
8060;SDS011;4073;42.626;25.386;2024-03-02T03:27:06;48.13;;;26.60;;
8060;SDS011;4073;42.626;25.386;2024-03-02T03:29:32;64.17;;;29.40;;
8060;SDS011;4073;42.626;25.386;2024-03-02T03:31:57;64.93;;;27.60;;
8060;SDS011;4073;42.626;25.386;2024-03-02T03:34:23;60.90;;;28.50;;
8060;SDS011;4073;42.626;25.386;2024-03-02T03:36:48;59.90;;;30.53;;
8060;SDS011;4073;42.626;25.386;2024-03-02T03:39:14;59.27;;;29.77;;
8060;SDS011;4073;42.626;25.386;2024-03-02T03:41:42;65.87;;;32.30;;
8060;SDS011;4073;42.626;25.386;2024-03-02T03:44:08;65.20;;;30.77;;
8060;SDS011;4073;42.626;25.386;2024-03-02T03:46:33;100.27;;;44.50;;
8060;SDS011;4073;42.626;25.386;2024-03-02T03:48:59;82.70;;;36.00;;
8060;SDS011;4073;42.626;25.386;2024-03-02T03:51:24;74.53;;;35.93;;
8060;SDS011;4073;42.626;25.386;2024-03-02T03:53:50;60.57;;;30.77;;
8060;SDS011;4073;42.626;25.386;2024-03-02T03:56:15;57.07;;;29.23;;
8060;SDS011;4073;42.626;25.386;2024-03-02T03:58:41;66.87;;;31.87;;
8060;SDS011;4073;42.626;25.386;2024-03-02T04:01:06;59.73;;;31.60;;
8060;SDS011;4073;42.626;25.386;2024-03-02T04:03:32;55.00;;;27.53;;
8060;SDS011;4073;42.626;25.386;2024-03-02T04:05:58;51.60;;;26.10;;
8060;SDS011;4073;42.626;25.386;2024-03-02T04:08:23;51.97;;;27.20;;
8060;SDS011;4073;42.626;25.386;2024-03-02T04:10:49;49.90;;;28.10;;
8060;SDS011;4073;42.626;25.386;2024-03-02T04:13:14;51.87;;;25.33;;
8060;SDS011;4073;42.626;25.386;2024-03-02T04:15:40;51.93;;;27.80;;
8060;SDS011;4073;42.626;25.386;2024-03-02T04:18:08;52.90;;;26.83;;
8060;SDS011;4073;42.626;25.386;2024-03-02T04:20:34;52.47;;;27.73;;
8060;SDS011;4073;42.626;25.386;2024-03-02T04:22:59;49.80;;;26.23;;
8060;SDS011;4073;42.626;25.386;2024-03-02T04:25:25;48.00;;;27.17;;
8060;SDS011;4073;42.626;25.386;2024-03-02T04:27:50;53.77;;;26.67;;
8060;SDS011;4073;42.626;25.386;2024-03-02T04:30:16;46.57;;;26.23;;
8060;SDS011;4073;42.626;25.386;2024-03-02T04:32:41;54.97;;;30.10;;
8060;SDS011;4073;42.626;25.386;2024-03-02T04:35:11;55.00;;;28.57;;
8060;SDS011;4073;42.626;25.386;2024-03-02T04:37:37;61.90;;;31.27;;
8060;SDS011;4073;42.626;25.386;2024-03-02T04:40:03;64.17;;;31.93;;
8060;SDS011;4073;42.626;25.386;2024-03-02T04:42:33;60.03;;;31.17;;
8060;SDS011;4073;42.626;25.386;2024-03-02T04:44:58;72.23;;;33.40;;
8060;SDS011;4073;42.626;25.386;2024-03-02T04:47:24;64.93;;;30.37;;
8060;SDS011;4073;42.626;25.386;2024-03-02T04:49:49;75.57;;;32.63;;
8060;SDS011;4073;42.626;25.386;2024-03-02T04:52:15;68.40;;;31.83;;
8060;SDS011;4073;42.626;25.386;2024-03-02T04:54:41;71.67;;;32.10;;
8060;SDS011;4073;42.626;25.386;2024-03-02T04:57:26;65.73;;;30.00;;
8060;SDS011;4073;42.626;25.386;2024-03-02T04:59:51;58.93;;;27.87;;
8060;SDS011;4073;42.626;25.386;2024-03-02T05:02:17;61.97;;;29.13;;
8060;SDS011;4073;42.626;25.386;2024-03-02T05:04:42;68.80;;;32.13;;
8060;SDS011;4073;42.626;25.386;2024-03-02T05:07:08;77.53;;;34.00;;
8060;SDS011;4073;42.626;25.386;2024-03-02T05:09:33;92.03;;;34.73;;
8060;SDS011;4073;42.626;25.386;2024-03-02T05:11:59;80.70;;;33.77;;
8060;SDS011;4073;42.626;25.386;2024-03-02T05:14:42;80.80;;;36.03;;
8060;SDS011;4073;42.626;25.386;2024-03-02T05:17:07;79.13;;;33.63;;
8060;SDS011;4073;42.626;25.386;2024-03-02T05:19:33;69.23;;;33.70;;
8060;SDS011;4073;42.626;25.386;2024-03-02T05:21:58;75.50;;;34.27;;
8060;SDS011;4073;42.626;25.386;2024-03-02T05:24:24;101.30;;;43.10;;
8060;SDS011;4073;42.626;25.386;2024-03-02T05:26:52;87.17;;;35.10;;
8060;SDS011;4073;42.626;25.386;2024-03-02T05:29:18;77.97;;;32.67;;
8060;SDS011;4073;42.626;25.386;2024-03-02T05:31:43;76.20;;;36.13;;
8060;SDS011;4073;42.626;25.386;2024-03-02T05:34:09;83.50;;;36.77;;
8060;SDS011;4073;42.626;25.386;2024-03-02T05:36:34;69.27;;;33.87;;
8060;SDS011;4073;42.626;25.386;2024-03-02T05:39:00;83.83;;;33.93;;
8060;SDS011;4073;42.626;25.386;2024-03-02T05:41:26;68.67;;;32.30;;
8060;SDS011;4073;42.626;25.386;2024-03-02T05:43:52;77.37;;;31.43;;
8060;SDS011;4073;42.626;25.386;2024-03-02T05:46:17;78.07;;;33.87;;
8060;SDS011;4073;42.626;25.386;2024-03-02T05:48:43;80.33;;;35.07;;
8060;SDS011;4073;42.626;25.386;2024-03-02T05:51:08;75.70;;;33.90;;
8060;SDS011;4073;42.626;25.386;2024-03-02T05:53:34;77.23;;;33.77;;
8060;SDS011;4073;42.626;25.386;2024-03-02T05:55:59;75.87;;;33.33;;
8060;SDS011;4073;42.626;25.386;2024-03-02T05:58:25;91.70;;;38.27;;
8060;SDS011;4073;42.626;25.386;2024-03-02T06:01:18;76.93;;;35.03;;
8060;SDS011;4073;42.626;25.386;2024-03-02T06:03:43;73.67;;;34.67;;
8060;SDS011;4073;42.626;25.386;2024-03-02T06:06:09;78.20;;;34.97;;
8060;SDS011;4073;42.626;25.386;2024-03-02T06:08:35;72.93;;;30.87;;
8060;SDS011;4073;42.626;25.386;2024-03-02T06:11:00;69.40;;;30.63;;
8060;SDS011;4073;42.626;25.386;2024-03-02T06:13:26;61.17;;;29.47;;
8060;SDS011;4073;42.626;25.386;2024-03-02T06:15:52;66.70;;;30.93;;
8060;SDS011;4073;42.626;25.386;2024-03-02T06:18:18;65.77;;;31.17;;
8060;SDS011;4073;42.626;25.386;2024-03-02T06:20:43;61.40;;;29.90;;
8060;SDS011;4073;42.626;25.386;2024-03-02T06:23:09;65.13;;;29.47;;
8060;SDS011;4073;42.626;25.386;2024-03-02T06:25:34;66.47;;;30.07;;
8060;SDS011;4073;42.626;25.386;2024-03-02T06:28:00;65.07;;;32.37;;
8060;SDS011;4073;42.626;25.386;2024-03-02T06:30:25;73.50;;;35.23;;
8060;SDS011;4073;42.626;25.386;2024-03-02T06:32:51;69.17;;;33.07;;
8060;SDS011;4073;42.626;25.386;2024-03-02T06:35:16;69.23;;;33.17;;
8060;SDS011;4073;42.626;25.386;2024-03-02T06:37:42;76.73;;;33.37;;
8060;SDS011;4073;42.626;25.386;2024-03-02T06:40:07;72.23;;;35.47;;
8060;SDS011;4073;42.626;25.386;2024-03-02T06:42:34;78.50;;;36.27;;
8060;SDS011;4073;42.626;25.386;2024-03-02T06:45:00;75.83;;;33.00;;
8060;SDS011;4073;42.626;25.386;2024-03-02T06:47:26;60.97;;;29.90;;
8060;SDS011;4073;42.626;25.386;2024-03-02T06:49:51;64.60;;;29.43;;
8060;SDS011;4073;42.626;25.386;2024-03-02T06:52:18;68.17;;;31.53;;
8060;SDS011;4073;42.626;25.386;2024-03-02T06:54:43;65.87;;;30.17;;
8060;SDS011;4073;42.626;25.386;2024-03-02T06:57:09;64.20;;;28.90;;
8060;SDS011;4073;42.626;25.386;2024-03-02T06:59:35;69.40;;;33.23;;
8060;SDS011;4073;42.626;25.386;2024-03-02T07:02:00;74.03;;;30.97;;
8060;SDS011;4073;42.626;25.386;2024-03-02T07:04:26;67.80;;;32.13;;
8060;SDS011;4073;42.626;25.386;2024-03-02T07:06:52;66.10;;;30.20;;
8060;SDS011;4073;42.626;25.386;2024-03-02T07:09:17;67.17;;;30.03;;
8060;SDS011;4073;42.626;25.386;2024-03-02T07:11:43;67.37;;;30.00;;
8060;SDS011;4073;42.626;25.386;2024-03-02T07:14:09;61.20;;;29.77;;
8060;SDS011;4073;42.626;25.386;2024-03-02T07:16:37;67.40;;;30.37;;
8060;SDS011;4073;42.626;25.386;2024-03-02T07:19:03;57.80;;;29.33;;
8060;SDS011;4073;42.626;25.386;2024-03-02T07:21:29;62.00;;;28.13;;
8060;SDS011;4073;42.626;25.386;2024-03-02T07:23:54;56.23;;;28.67;;
8060;SDS011;4073;42.626;25.386;2024-03-02T07:26:20;53.07;;;25.80;;
8060;SDS011;4073;42.626;25.386;2024-03-02T07:28:46;56.70;;;27.23;;
8060;SDS011;4073;42.626;25.386;2024-03-02T07:31:13;56.47;;;27.50;;
8060;SDS011;4073;42.626;25.386;2024-03-02T07:33:38;81.80;;;39.80;;
8060;SDS011;4073;42.626;25.386;2024-03-02T07:36:04;63.73;;;32.37;;
8060;SDS011;4073;42.626;25.386;2024-03-02T07:38:30;64.27;;;31.67;;
8060;SDS011;4073;42.626;25.386;2024-03-02T07:40:57;55.17;;;29.67;;
8060;SDS011;4073;42.626;25.386;2024-03-02T07:43:22;69.03;;;34.93;;
8060;SDS011;4073;42.626;25.386;2024-03-02T07:45:48;64.73;;;35.10;;
8060;SDS011;4073;42.626;25.386;2024-03-02T07:48:14;58.73;;;31.60;;
8060;SDS011;4073;42.626;25.386;2024-03-02T07:50:40;44.17;;;25.73;;
8060;SDS011;4073;42.626;25.386;2024-03-02T07:53:06;60.77;;;37.17;;
8060;SDS011;4073;42.626;25.386;2024-03-02T07:55:32;70.53;;;41.20;;
8060;SDS011;4073;42.626;25.386;2024-03-02T07:57:58;45.47;;;25.27;;
8060;SDS011;4073;42.626;25.386;2024-03-02T08:00:24;46.10;;;26.83;;
8060;SDS011;4073;42.626;25.386;2024-03-02T08:02:50;52.37;;;29.37;;
8060;SDS011;4073;42.626;25.386;2024-03-02T08:05:17;41.37;;;27.57;;
8060;SDS011;4073;42.626;25.386;2024-03-02T08:07:46;50.53;;;28.50;;
8060;SDS011;4073;42.626;25.386;2024-03-02T08:10:12;44.37;;;25.30;;
8060;SDS011;4073;42.626;25.386;2024-03-02T08:12:38;34.97;;;20.17;;
8060;SDS011;4073;42.626;25.386;2024-03-02T08:15:04;39.97;;;22.73;;
8060;SDS011;4073;42.626;25.386;2024-03-02T08:17:30;37.17;;;23.00;;
8060;SDS011;4073;42.626;25.386;2024-03-02T08:19:56;46.43;;;26.83;;
8060;SDS011;4073;42.626;25.386;2024-03-02T08:22:22;51.57;;;34.77;;
8060;SDS011;4073;42.626;25.386;2024-03-02T08:24:50;45.53;;;27.57;;
8060;SDS011;4073;42.626;25.386;2024-03-02T08:27:16;49.83;;;25.73;;
8060;SDS011;4073;42.626;25.386;2024-03-02T08:29:41;46.90;;;26.40;;
8060;SDS011;4073;42.626;25.386;2024-03-02T08:32:07;44.90;;;25.60;;
8060;SDS011;4073;42.626;25.386;2024-03-02T08:34:33;45.60;;;26.07;;
8060;SDS011;4073;42.626;25.386;2024-03-02T08:37:01;49.57;;;27.23;;
8060;SDS011;4073;42.626;25.386;2024-03-02T08:39:27;47.60;;;27.00;;
8060;SDS011;4073;42.626;25.386;2024-03-02T08:41:53;49.53;;;29.17;;
8060;SDS011;4073;42.626;25.386;2024-03-02T08:44:19;59.10;;;32.27;;
8060;SDS011;4073;42.626;25.386;2024-03-02T08:46:45;55.37;;;30.50;;
8060;SDS011;4073;42.626;25.386;2024-03-02T08:49:11;46.27;;;30.10;;
8060;SDS011;4073;42.626;25.386;2024-03-02T08:51:37;50.47;;;28.77;;
8060;SDS011;4073;42.626;25.386;2024-03-02T08:54:02;53.03;;;31.10;;
8060;SDS011;4073;42.626;25.386;2024-03-02T08:56:29;52.00;;;29.43;;
8060;SDS011;4073;42.626;25.386;2024-03-02T08:58:55;57.57;;;31.93;;
8060;SDS011;4073;42.626;25.386;2024-03-02T09:01:21;51.90;;;31.27;;
8060;SDS011;4073;42.626;25.386;2024-03-02T09:03:46;58.80;;;33.40;;
8060;SDS011;4073;42.626;25.386;2024-03-02T09:06:12;63.87;;;36.70;;
8060;SDS011;4073;42.626;25.386;2024-03-02T09:08:39;70.37;;;41.83;;
8060;SDS011;4073;42.626;25.386;2024-03-02T09:11:05;53.13;;;30.93;;
8060;SDS011;4073;42.626;25.386;2024-03-02T09:13:31;45.87;;;31.10;;
8060;SDS011;4073;42.626;25.386;2024-03-02T09:15:57;47.40;;;29.53;;
8060;SDS011;4073;42.626;25.386;2024-03-02T09:18:23;47.17;;;28.07;;
8060;SDS011;4073;42.626;25.386;2024-03-02T09:20:48;44.57;;;26.97;;
8060;SDS011;4073;42.626;25.386;2024-03-02T09:23:14;46.87;;;28.87;;
8060;SDS011;4073;42.626;25.386;2024-03-02T09:25:39;45.40;;;27.70;;
8060;SDS011;4073;42.626;25.386;2024-03-02T09:28:05;46.50;;;26.13;;
8060;SDS011;4073;42.626;25.386;2024-03-02T09:30:32;47.03;;;28.23;;
8060;SDS011;4073;42.626;25.386;2024-03-02T09:32:57;44.27;;;26.93;;
8060;SDS011;4073;42.626;25.386;2024-03-02T09:35:23;46.80;;;29.17;;
8060;SDS011;4073;42.626;25.386;2024-03-02T09:37:48;45.70;;;27.10;;
8060;SDS011;4073;42.626;25.386;2024-03-02T09:40:14;37.87;;;24.60;;
8060;SDS011;4073;42.626;25.386;2024-03-02T09:42:41;45.87;;;28.70;;
8060;SDS011;4073;42.626;25.386;2024-03-02T09:45:08;43.27;;;26.80;;
8060;SDS011;4073;42.626;25.386;2024-03-02T09:47:35;43.10;;;28.63;;
8060;SDS011;4073;42.626;25.386;2024-03-02T09:50:01;44.47;;;29.30;;
8060;SDS011;4073;42.626;25.386;2024-03-02T09:52:26;58.90;;;35.20;;
8060;SDS011;4073;42.626;25.386;2024-03-02T09:54:52;38.67;;;27.13;;
8060;SDS011;4073;42.626;25.386;2024-03-02T09:57:18;48.63;;;34.63;;
8060;SDS011;4073;42.626;25.386;2024-03-02T09:59:43;47.43;;;29.20;;
8060;SDS011;4073;42.626;25.386;2024-03-02T10:02:10;42.80;;;26.83;;
8060;SDS011;4073;42.626;25.386;2024-03-02T10:04:36;40.97;;;26.73;;
8060;SDS011;4073;42.626;25.386;2024-03-02T10:07:10;45.83;;;29.97;;
8060;SDS011;4073;42.626;25.386;2024-03-02T10:09:37;39.00;;;27.23;;
8060;SDS011;4073;42.626;25.386;2024-03-02T10:12:03;39.00;;;25.17;;
8060;SDS011;4073;42.626;25.386;2024-03-02T10:14:30;40.97;;;27.50;;
8060;SDS011;4073;42.626;25.386;2024-03-02T10:17:04;38.77;;;26.00;;
8060;SDS011;4073;42.626;25.386;2024-03-02T10:19:40;39.67;;;25.80;;
8060;SDS011;4073;42.626;25.386;2024-03-02T10:22:07;40.63;;;26.40;;
8060;SDS011;4073;42.626;25.386;2024-03-02T10:24:37;38.07;;;26.50;;
8060;SDS011;4073;42.626;25.386;2024-03-02T10:27:37;40.03;;;25.17;;
8060;SDS011;4073;42.626;25.386;2024-03-02T10:29:59;34.50;;;24.53;;
8060;SDS011;4073;42.626;25.386;2024-03-02T10:32:24;43.23;;;27.83;;
8060;SDS011;4073;42.626;25.386;2024-03-02T10:34:51;37.77;;;25.27;;
8060;SDS011;4073;42.626;25.386;2024-03-02T10:37:17;40.20;;;26.97;;
8060;SDS011;4073;42.626;25.386;2024-03-02T10:39:42;42.40;;;27.20;;
8060;SDS011;4073;42.626;25.386;2024-03-02T10:42:08;45.93;;;27.20;;
8060;SDS011;4073;42.626;25.386;2024-03-02T10:44:35;47.80;;;30.53;;
8060;SDS011;4073;42.626;25.386;2024-03-02T10:47:01;43.80;;;26.50;;
8060;SDS011;4073;42.626;25.386;2024-03-02T10:49:31;42.50;;;25.63;;
8060;SDS011;4073;42.626;25.386;2024-03-02T10:52:00;39.20;;;25.23;;
8060;SDS011;4073;42.626;25.386;2024-03-02T10:54:26;45.97;;;28.20;;
8060;SDS011;4073;42.626;25.386;2024-03-02T10:56:54;41.80;;;26.30;;
8060;SDS011;4073;42.626;25.386;2024-03-02T10:59:33;52.83;;;30.70;;
8060;SDS011;4073;42.626;25.386;2024-03-02T11:02:00;46.83;;;28.13;;
8060;SDS011;4073;42.626;25.386;2024-03-02T11:04:28;50.63;;;29.37;;
8060;SDS011;4073;42.626;25.386;2024-03-02T11:06:59;53.30;;;31.80;;
8060;SDS011;4073;42.626;25.386;2024-03-02T11:09:26;54.00;;;30.43;;
8060;SDS011;4073;42.626;25.386;2024-03-02T11:12:06;54.57;;;32.47;;
8060;SDS011;4073;42.626;25.386;2024-03-02T11:14:38;47.53;;;28.60;;
8060;SDS011;4073;42.626;25.386;2024-03-02T11:17:08;52.03;;;30.67;;
8060;SDS011;4073;42.626;25.386;2024-03-02T11:19:35;47.23;;;29.40;;
8060;SDS011;4073;42.626;25.386;2024-03-02T11:22:05;52.30;;;29.83;;
8060;SDS011;4073;42.626;25.386;2024-03-02T11:24:32;44.87;;;27.00;;
8060;SDS011;4073;42.626;25.386;2024-03-02T11:26:58;48.97;;;29.43;;
8060;SDS011;4073;42.626;25.386;2024-03-02T11:34:41;42.43;;;27.53;;
8060;SDS011;4073;42.626;25.386;2024-03-02T11:37:13;43.70;;;27.07;;
8060;SDS011;4073;42.626;25.386;2024-03-02T11:39:39;52.13;;;30.40;;
8060;SDS011;4073;42.626;25.386;2024-03-02T11:42:08;47.87;;;29.03;;
8060;SDS011;4073;42.626;25.386;2024-03-02T11:44:38;38.03;;;25.30;;
8060;SDS011;4073;42.626;25.386;2024-03-02T11:47:07;43.70;;;26.90;;
8060;SDS011;4073;42.626;25.386;2024-03-02T11:49:45;41.63;;;26.57;;
8060;SDS011;4073;42.626;25.386;2024-03-02T11:52:15;39.23;;;25.77;;
8060;SDS011;4073;42.626;25.386;2024-03-02T11:54:43;43.93;;;27.10;;
8060;SDS011;4073;42.626;25.386;2024-03-02T11:57:17;41.17;;;25.70;;
8060;SDS011;4073;42.626;25.386;2024-03-02T11:59:44;39.77;;;24.90;;
8060;SDS011;4073;42.626;25.386;2024-03-02T12:02:14;46.13;;;26.93;;
8060;SDS011;4073;42.626;25.386;2024-03-02T12:04:47;44.03;;;28.30;;
8060;SDS011;4073;42.626;25.386;2024-03-02T12:07:19;39.93;;;24.37;;
8060;SDS011;4073;42.626;25.386;2024-03-02T12:09:49;39.63;;;23.50;;
8060;SDS011;4073;42.626;25.386;2024-03-02T12:12:25;36.00;;;23.33;;
8060;SDS011;4073;42.626;25.386;2024-03-02T12:14:52;40.60;;;23.73;;
8060;SDS011;4073;42.626;25.386;2024-03-02T12:17:20;33.40;;;22.37;;
8060;SDS011;4073;42.626;25.386;2024-03-02T12:19:46;40.03;;;22.83;;
8060;SDS011;4073;42.626;25.386;2024-03-02T12:22:12;34.90;;;22.70;;
8060;SDS011;4073;42.626;25.386;2024-03-02T12:24:37;38.87;;;23.77;;
8060;SDS011;4073;42.626;25.386;2024-03-02T12:27:03;35.00;;;23.77;;
8060;SDS011;4073;42.626;25.386;2024-03-02T12:29:30;39.90;;;25.43;;
8060;SDS011;4073;42.626;25.386;2024-03-02T12:31:56;34.00;;;23.77;;
8060;SDS011;4073;42.626;25.386;2024-03-02T12:34:21;39.13;;;24.50;;
8060;SDS011;4073;42.626;25.386;2024-03-02T12:36:48;36.73;;;24.70;;
8060;SDS011;4073;42.626;25.386;2024-03-02T12:39:21;35.20;;;25.27;;
8060;SDS011;4073;42.626;25.386;2024-03-02T12:41:50;31.83;;;22.53;;
8060;SDS011;4073;42.626;25.386;2024-03-02T12:44:19;29.47;;;21.97;;
8060;SDS011;4073;42.626;25.386;2024-03-02T12:46:45;34.23;;;21.57;;
8060;SDS011;4073;42.626;25.386;2024-03-02T12:49:12;32.83;;;21.33;;
8060;SDS011;4073;42.626;25.386;2024-03-02T12:51:41;31.73;;;20.67;;
8060;SDS011;4073;42.626;25.386;2024-03-02T12:54:08;34.03;;;22.50;;
8060;SDS011;4073;42.626;25.386;2024-03-02T12:56:35;33.10;;;21.30;;
8060;SDS011;4073;42.626;25.386;2024-03-02T12:59:02;41.20;;;23.17;;
8060;SDS011;4073;42.626;25.386;2024-03-02T13:01:28;34.27;;;21.63;;
8060;SDS011;4073;42.626;25.386;2024-03-02T13:03:54;29.80;;;21.80;;
8060;SDS011;4073;42.626;25.386;2024-03-02T13:06:22;34.27;;;20.50;;
8060;SDS011;4073;42.626;25.386;2024-03-02T13:08:49;34.23;;;21.57;;
8060;SDS011;4073;42.626;25.386;2024-03-02T13:11:15;31.90;;;21.13;;
8060;SDS011;4073;42.626;25.386;2024-03-02T13:13:41;30.13;;;20.73;;
8060;SDS011;4073;42.626;25.386;2024-03-02T13:16:08;38.53;;;22.50;;
8060;SDS011;4073;42.626;25.386;2024-03-02T13:18:35;31.10;;;21.93;;
8060;SDS011;4073;42.626;25.386;2024-03-02T13:21:01;31.00;;;21.73;;
8060;SDS011;4073;42.626;25.386;2024-03-02T13:23:26;31.93;;;21.67;;
8060;SDS011;4073;42.626;25.386;2024-03-02T13:25:52;29.63;;;20.30;;
8060;SDS011;4073;42.626;25.386;2024-03-02T13:28:17;43.20;;;24.97;;
8060;SDS011;4073;42.626;25.386;2024-03-02T13:30:43;32.27;;;21.60;;
8060;SDS011;4073;42.626;25.386;2024-03-02T13:33:08;29.97;;;21.17;;
8060;SDS011;4073;42.626;25.386;2024-03-02T13:35:34;27.47;;;20.97;;
8060;SDS011;4073;42.626;25.386;2024-03-02T13:37:59;31.03;;;23.00;;
8060;SDS011;4073;42.626;25.386;2024-03-02T13:40:25;28.67;;;20.87;;
8060;SDS011;4073;42.626;25.386;2024-03-02T13:42:50;31.70;;;21.07;;
8060;SDS011;4073;42.626;25.386;2024-03-02T13:45:18;31.47;;;20.63;;
8060;SDS011;4073;42.626;25.386;2024-03-02T13:47:44;27.77;;;20.60;;
8060;SDS011;4073;42.626;25.386;2024-03-02T13:50:09;32.57;;;23.27;;
8060;SDS011;4073;42.626;25.386;2024-03-02T13:52:35;30.63;;;21.27;;
8060;SDS011;4073;42.626;25.386;2024-03-02T13:55:01;35.67;;;21.77;;
8060;SDS011;4073;42.626;25.386;2024-03-02T13:57:27;33.63;;;23.97;;
8060;SDS011;4073;42.626;25.386;2024-03-02T13:59:53;27.13;;;20.73;;
8060;SDS011;4073;42.626;25.386;2024-03-02T14:02:19;33.57;;;21.30;;
8060;SDS011;4073;42.626;25.386;2024-03-02T14:04:45;30.50;;;21.63;;
8060;SDS011;4073;42.626;25.386;2024-03-02T14:07:10;32.90;;;23.37;;
8060;SDS011;4073;42.626;25.386;2024-03-02T14:09:37;31.53;;;21.73;;
8060;SDS011;4073;42.626;25.386;2024-03-02T14:12:03;30.43;;;19.67;;
8060;SDS011;4073;42.626;25.386;2024-03-02T14:14:29;31.73;;;20.00;;
8060;SDS011;4073;42.626;25.386;2024-03-02T14:16:55;28.90;;;20.80;;
8060;SDS011;4073;42.626;25.386;2024-03-02T14:19:21;30.80;;;22.07;;
8060;SDS011;4073;42.626;25.386;2024-03-02T14:21:47;30.47;;;21.37;;
8060;SDS011;4073;42.626;25.386;2024-03-02T14:24:13;29.30;;;22.33;;
8060;SDS011;4073;42.626;25.386;2024-03-02T14:26:39;29.63;;;21.87;;
8060;SDS011;4073;42.626;25.386;2024-03-02T14:29:05;33.37;;;21.93;;
8060;SDS011;4073;42.626;25.386;2024-03-02T14:31:31;32.53;;;23.03;;
8060;SDS011;4073;42.626;25.386;2024-03-02T14:33:57;30.67;;;21.17;;
8060;SDS011;4073;42.626;25.386;2024-03-02T14:36:23;28.30;;;21.97;;
8060;SDS011;4073;42.626;25.386;2024-03-02T14:38:49;50.97;;;31.67;;
8060;SDS011;4073;42.626;25.386;2024-03-02T14:41:15;32.10;;;22.50;;